createdAt,value
2024-01-28T00:01:42.535Z,102344.00
2024-01-28T00:04:10.718Z,102359.00
2024-01-28T00:06:38.425Z,102347.00
2024-01-28T00:09:07.488Z,102340.00
2024-01-28T00:11:35.204Z,102339.00
2024-01-28T00:14:02.721Z,102351.00
2024-01-28T00:16:30.389Z,102342.00
2024-01-28T00:19:00.291Z,102332.00
2024-01-28T00:21:28.187Z,102324.00
2024-01-28T00:23:56.637Z,102322.00
2024-01-28T00:26:24.724Z,102330.00
2024-01-28T00:28:52.294Z,102320.00
2024-01-28T00:31:19.783Z,102328.00
2024-01-28T00:33:47.380Z,102324.00
2024-01-28T00:36:15.929Z,102322.00
2024-01-28T00:38:43.563Z,102322.00
2024-01-28T00:41:11.034Z,102329.00
2024-01-28T00:43:38.568Z,102319.00
2024-01-28T00:46:06.140Z,102323.00
2024-01-28T00:48:34.016Z,102316.00
2024-01-28T00:51:01.822Z,102317.00
2024-01-28T00:53:29.456Z,102317.00
2024-01-28T00:55:56.944Z,102317.00
2024-01-28T00:58:24.534Z,102311.00
2024-01-28T01:00:52.145Z,102313.00
2024-01-28T01:03:19.917Z,102307.00
2024-01-28T01:05:47.725Z,102302.00
2024-01-28T01:08:15.458Z,102294.00
2024-01-28T01:10:43.938Z,102298.00
2024-01-28T01:13:11.361Z,102302.00
2024-01-28T01:15:38.790Z,102303.00
2024-01-28T01:18:06.589Z,102300.00
2024-01-28T01:20:37.388Z,102299.00
2024-01-28T01:23:08.686Z,102305.00
2024-01-28T01:25:36.557Z,102308.00
2024-01-28T01:28:04.354Z,102302.00
2024-01-28T01:30:31.868Z,102305.00
2024-01-28T01:32:59.499Z,102301.00
2024-01-28T01:35:28.028Z,102303.00
2024-01-28T01:37:58.426Z,102306.00
2024-01-28T01:40:25.958Z,102305.00
2024-01-28T01:42:53.624Z,102294.00
2024-01-28T01:45:21.219Z,102298.00
2024-01-28T01:47:48.874Z,102291.00
2024-01-28T01:50:16.475Z,102297.00
2024-01-28T01:52:44.038Z,102294.00
2024-01-28T01:55:11.646Z,102293.00
2024-01-28T01:57:39.253Z,102283.00
2024-01-28T02:00:08.878Z,102280.00
2024-01-28T02:02:36.568Z,102285.00
2024-01-28T02:05:04.610Z,102286.00
2024-01-28T02:07:32.161Z,102278.00
2024-01-28T02:09:59.813Z,102283.00
2024-01-28T02:12:27.412Z,102270.00
2024-01-28T02:15:04.822Z,102272.00
2024-01-28T02:17:32.523Z,102280.00
2024-01-28T02:20:00.468Z,102281.00
2024-01-28T02:22:28.168Z,102280.00
2024-01-28T02:24:55.880Z,102279.00
2024-01-28T02:27:23.484Z,102271.00
2024-01-28T02:29:50.979Z,102272.00
2024-01-28T02:32:18.942Z,102281.00
2024-01-28T02:34:46.492Z,102279.00
2024-01-28T02:37:14.193Z,102267.00
2024-01-28T02:39:43.228Z,102280.00
2024-01-28T02:42:10.990Z,102269.00
2024-01-28T02:44:38.536Z,102256.00
2024-01-28T02:47:06.013Z,102270.00
2024-01-28T02:49:33.607Z,102277.00
2024-01-28T02:52:01.119Z,102269.00
2024-01-28T02:54:28.686Z,102259.00
2024-01-28T02:56:56.465Z,102255.00
2024-01-28T02:59:23.980Z,102255.00
2024-01-28T03:01:51.446Z,102252.00
2024-01-28T03:04:19.163Z,102257.00
2024-01-28T03:06:47.014Z,102244.00
2024-01-28T03:09:14.819Z,102242.00
2024-01-28T03:11:42.527Z,102241.00
2024-01-28T03:14:11.543Z,102242.00
2024-01-28T03:16:41.459Z,102232.00
2024-01-28T03:19:08.901Z,102232.00
2024-01-28T03:21:36.710Z,102225.00
2024-01-28T03:24:04.447Z,102222.00
2024-01-28T03:26:35.695Z,102224.00
2024-01-28T03:29:05.728Z,102218.00
2024-01-28T03:31:33.121Z,102211.00
2024-01-28T03:34:00.793Z,102213.00
2024-01-28T03:36:28.497Z,102211.00
2024-01-28T03:38:56.103Z,102213.00
2024-01-28T03:41:23.671Z,102208.00
2024-01-28T03:43:51.200Z,102215.00
2024-01-28T03:46:18.678Z,102207.00
2024-01-28T03:48:48.275Z,102214.00
2024-01-28T03:51:15.922Z,102216.00
2024-01-28T03:53:43.507Z,102208.00
2024-01-28T03:56:11.237Z,102214.00
2024-01-28T03:58:38.786Z,102214.00
2024-01-28T04:01:06.643Z,102213.00
2024-01-28T04:03:34.192Z,102207.00
2024-01-28T04:06:02.367Z,102210.00
2024-01-28T04:08:29.946Z,102210.00
2024-01-28T04:10:57.590Z,102207.00
2024-01-28T04:13:25.483Z,102208.00
2024-01-28T04:15:53.137Z,102205.00
2024-01-28T04:18:20.886Z,102209.00
2024-01-28T04:20:48.541Z,102214.00
2024-01-28T04:23:16.565Z,102208.00
2024-01-28T04:25:44.808Z,102199.00
2024-01-28T04:28:12.386Z,102199.00
2024-01-28T04:30:39.883Z,102201.00
2024-01-28T04:33:07.438Z,102199.00
2024-01-28T04:35:35.090Z,102196.00
2024-01-28T04:38:02.621Z,102202.00
2024-01-28T04:40:30.758Z,102201.00
2024-01-28T04:42:59.023Z,102203.00
2024-01-28T04:45:26.539Z,102207.00
2024-01-28T04:47:54.568Z,102199.00
2024-01-28T04:50:22.025Z,102211.00
2024-01-28T04:52:49.480Z,102201.00
2024-01-28T04:55:16.956Z,102204.00
2024-01-28T04:57:44.503Z,102196.00
2024-01-28T05:00:12.730Z,102198.00
2024-01-28T05:02:40.301Z,102194.00
2024-01-28T05:05:07.736Z,102205.00
2024-01-28T05:07:35.369Z,102193.00
2024-01-28T05:10:03.426Z,102197.00
2024-01-28T05:12:32.038Z,102197.00
2024-01-28T05:14:59.641Z,102197.00
2024-01-28T05:17:27.096Z,102192.00
2024-01-28T05:19:54.685Z,102183.00
2024-01-28T05:22:23.855Z,102177.00
2024-01-28T05:24:52.793Z,102182.00
2024-01-28T05:27:20.381Z,102180.00
2024-01-28T05:29:47.902Z,102170.00
2024-01-28T05:32:15.920Z,102182.00
2024-01-28T05:34:43.519Z,102187.00
2024-01-28T05:37:11.037Z,102185.00
2024-01-28T05:39:38.608Z,102187.00
2024-01-28T05:42:06.168Z,102178.00
2024-01-28T05:44:33.953Z,102180.00
2024-01-28T05:47:01.458Z,102176.00
2024-01-28T05:49:29.480Z,102166.00
2024-01-28T05:51:57.141Z,102169.00
2024-01-28T05:54:24.656Z,102176.00
2024-01-28T05:56:52.214Z,102180.00
2024-01-28T05:59:19.769Z,102175.00
2024-01-28T06:01:47.406Z,102168.00
2024-01-28T06:04:14.846Z,102174.00
2024-01-28T06:06:44.037Z,102176.00
2024-01-28T06:09:11.938Z,102178.00
2024-01-28T06:11:39.483Z,102184.00
2024-01-28T06:14:06.996Z,102175.00
2024-01-28T06:16:43.753Z,102181.00
2024-01-28T06:19:11.421Z,102179.00
2024-01-28T06:21:38.957Z,102181.00
2024-01-28T06:24:06.595Z,102174.00
2024-01-28T06:26:37.418Z,102172.00
2024-01-28T06:29:04.970Z,102167.00
2024-01-28T06:31:32.455Z,102171.00
2024-01-28T06:34:00.114Z,102171.00
2024-01-28T06:36:30.617Z,102160.00
2024-01-28T06:38:59.272Z,102158.00
2024-01-28T06:41:26.758Z,102153.00
2024-01-28T06:43:54.302Z,102168.00
2024-01-28T06:46:21.907Z,102159.00
2024-01-28T06:48:49.959Z,102164.00
2024-01-28T06:51:17.420Z,102167.00
2024-01-28T06:53:45.907Z,102163.00
2024-01-28T06:56:13.557Z,102159.00
2024-01-28T06:58:43.065Z,102156.00
2024-01-28T07:01:14.144Z,102153.00
2024-01-28T07:03:41.968Z,102163.00
2024-01-28T07:06:09.477Z,102166.00
2024-01-28T07:08:37.086Z,102163.00
2024-01-28T07:11:05.628Z,102158.00
2024-01-28T07:13:33.145Z,102168.00
2024-01-28T07:16:00.640Z,102172.00
2024-01-28T07:18:28.104Z,102170.00
2024-01-28T07:20:56.576Z,102173.00
2024-01-28T07:23:24.043Z,102172.00
2024-01-28T07:25:51.627Z,102162.00
2024-01-28T07:28:19.108Z,102166.00
2024-01-28T07:30:46.595Z,102159.00
2024-01-28T07:33:17.337Z,102153.00
2024-01-28T07:35:45.113Z,102150.00
2024-01-28T07:38:13.304Z,102145.00
2024-01-28T07:40:40.795Z,102142.00
2024-01-28T07:43:08.292Z,102150.00
2024-01-28T07:45:38.710Z,102151.00
2024-01-28T07:48:06.533Z,102164.00
2024-01-28T07:50:33.992Z,102156.00
2024-01-28T07:53:01.549Z,102161.00
2024-01-28T07:55:28.950Z,102150.00
2024-01-28T07:57:56.477Z,102147.00
2024-01-28T08:00:27.470Z,102144.00
2024-01-28T08:02:57.111Z,102151.00
2024-01-28T08:05:24.910Z,102146.00
2024-01-28T08:07:52.499Z,102145.00
2024-01-28T08:10:19.976Z,102144.00
2024-01-28T08:12:47.426Z,102144.00
2024-01-28T08:15:15.067Z,102136.00
2024-01-28T08:17:42.663Z,102135.00
2024-01-28T08:20:10.694Z,102130.00
2024-01-28T08:22:38.608Z,102127.00
2024-01-28T08:25:06.488Z,102130.00
2024-01-28T08:27:33.961Z,102137.00
2024-01-28T08:30:01.803Z,102131.00
2024-01-28T08:32:29.496Z,102131.00
2024-01-28T08:34:57.143Z,102140.00
2024-01-28T08:37:24.840Z,102135.00
2024-01-28T08:39:52.455Z,102125.00
2024-01-28T08:42:20.724Z,102130.00
2024-01-28T08:44:48.424Z,102126.00
2024-01-28T08:47:15.941Z,102128.00
2024-01-28T08:49:44.356Z,102118.00
2024-01-28T08:52:12.630Z,102119.00
2024-01-28T08:54:40.171Z,102109.00
2024-01-28T08:57:07.854Z,102107.00
2024-01-28T08:59:35.685Z,102105.00
2024-01-28T09:02:05.278Z,102111.00
2024-01-28T09:04:34.821Z,102109.00
2024-01-28T09:07:02.821Z,102107.00
2024-01-28T09:09:30.447Z,102117.00
2024-01-28T09:11:58.966Z,102118.00
2024-01-28T09:14:27.844Z,102121.00
2024-01-28T09:16:55.580Z,102132.00
2024-01-28T09:19:23.172Z,102139.00
2024-01-28T09:21:51.438Z,102129.00
2024-01-28T09:24:19.525Z,102121.00
2024-01-28T09:26:48.589Z,102127.00
2024-01-28T09:29:16.460Z,102134.00
2024-01-28T09:31:47.200Z,102135.00
2024-01-28T09:34:15.144Z,102140.00
2024-01-28T09:36:42.989Z,102137.00
2024-01-28T09:39:12.235Z,102139.00
2024-01-28T09:42:00.164Z,102143.00
2024-01-28T09:44:28.375Z,102134.00
2024-01-28T09:46:55.988Z,102135.00
2024-01-28T09:49:24.026Z,102130.00
2024-01-28T09:51:51.667Z,102143.00
2024-01-28T09:54:19.259Z,102140.00
2024-01-28T09:56:47.069Z,102140.00
2024-01-28T09:59:15.538Z,102144.00
2024-01-28T10:01:44.139Z,102136.00
2024-01-28T10:04:17.646Z,102129.00
2024-01-28T10:06:48.840Z,102136.00
2024-01-28T10:09:16.622Z,102128.00
2024-01-28T10:11:44.126Z,102120.00
2024-01-28T10:14:12.387Z,102133.00
2024-01-28T10:16:40.011Z,102143.00
2024-01-28T10:19:07.792Z,102138.00
2024-01-28T10:21:38.574Z,102137.00
2024-01-28T10:24:06.233Z,102134.00
2024-01-28T10:26:37.793Z,102141.00
2024-01-28T10:29:08.118Z,102136.00
2024-01-28T10:31:35.605Z,102132.00
2024-01-28T10:34:03.329Z,102119.00
2024-01-28T10:36:35.253Z,102121.00
2024-01-28T10:39:05.316Z,102114.00
2024-01-28T10:41:34.096Z,102107.00
2024-01-28T10:44:01.635Z,102109.00
2024-01-28T10:46:43.094Z,102106.00
2024-01-28T10:49:11.305Z,102106.00
2024-01-28T10:51:39.857Z,102099.00
2024-01-28T10:54:11.961Z,102090.00
2024-01-28T10:56:40.054Z,102091.00
2024-01-28T10:59:07.573Z,102096.00
2024-01-28T11:01:35.488Z,102098.00
2024-01-28T11:04:04.046Z,102083.00
2024-01-28T11:06:31.969Z,102082.00
2024-01-28T11:09:00.036Z,102087.00
2024-01-28T11:11:27.651Z,102086.00
2024-01-28T11:13:56.538Z,102091.00
2024-01-28T11:16:24.162Z,102091.00
2024-01-28T11:18:59.097Z,102092.00
2024-01-28T11:21:27.642Z,102091.00
2024-01-28T11:23:56.189Z,102097.00
2024-01-28T11:26:24.763Z,102096.00
2024-01-28T11:28:54.155Z,102098.00
2024-01-28T11:31:22.515Z,102095.00
2024-01-28T11:33:50.467Z,102092.00
2024-01-28T11:36:19.706Z,102090.00
2024-01-28T11:38:47.349Z,102091.00
2024-01-28T11:41:15.009Z,102085.00
2024-01-28T11:43:42.669Z,102074.00
2024-01-28T11:46:10.347Z,102071.00
2024-01-28T11:48:38.049Z,102077.00
2024-01-28T11:51:06.137Z,102082.00
2024-01-28T11:53:34.998Z,102081.00
2024-01-28T11:56:08.806Z,102082.00
2024-01-28T11:58:36.368Z,102072.00
2024-01-28T12:01:04.139Z,102068.00
2024-01-28T12:03:31.813Z,102067.00
2024-01-28T12:05:59.301Z,102063.00
2024-01-28T12:08:27.652Z,102067.00
2024-01-28T12:10:59.193Z,102055.00
2024-01-28T12:13:26.816Z,102054.00
2024-01-28T12:15:54.325Z,102057.00
2024-01-28T12:18:22.933Z,102047.00
2024-01-28T12:20:50.829Z,102042.00
2024-01-28T12:23:21.532Z,102041.00
2024-01-28T12:25:50.625Z,102033.00
2024-01-28T12:28:18.487Z,102033.00
2024-01-28T12:30:46.193Z,102025.00
2024-01-28T12:33:13.825Z,102024.00
2024-01-28T12:35:41.290Z,102025.00
2024-01-28T12:38:08.857Z,102016.00
2024-01-28T12:40:36.384Z,102009.00
2024-01-28T12:43:03.973Z,102007.00
2024-01-28T12:45:31.499Z,102006.00
2024-01-28T12:47:59.439Z,101995.00
2024-01-28T12:50:27.093Z,101995.00
2024-01-28T12:52:54.510Z,101993.00
2024-01-28T12:55:22.130Z,101989.00
2024-01-28T12:57:49.643Z,101990.00
2024-01-28T13:00:19.250Z,101989.00
2024-01-28T13:02:47.392Z,101989.00
2024-01-28T13:05:16.998Z,101983.00
2024-01-28T13:07:44.638Z,101977.00
2024-01-28T13:10:12.416Z,101974.00
2024-01-28T13:12:40.254Z,101975.00
2024-01-28T13:15:09.058Z,101972.00
2024-01-28T13:17:37.560Z,101970.00
2024-01-28T13:20:05.888Z,101970.00
2024-01-28T13:22:33.549Z,101966.00
2024-01-28T13:25:01.335Z,101963.00
2024-01-28T13:27:29.040Z,101959.00
2024-01-28T13:29:56.791Z,101956.00
2024-01-28T13:32:25.474Z,101960.00
2024-01-28T13:34:53.332Z,101956.00
2024-01-28T13:37:21.065Z,101951.00
2024-01-28T13:39:50.096Z,101954.00
2024-01-28T13:42:17.828Z,101952.00
2024-01-28T13:44:45.760Z,101952.00
2024-01-28T13:47:14.114Z,101950.00
2024-01-28T13:49:41.895Z,101949.00
2024-01-28T13:52:09.505Z,101948.00
2024-01-28T13:54:36.960Z,101950.00
2024-01-28T13:57:04.944Z,101944.00
2024-01-28T13:59:32.706Z,101950.00
2024-01-28T14:02:02.216Z,101954.00
2024-01-28T14:04:30.163Z,101953.00
2024-01-28T14:06:57.959Z,101958.00
2024-01-28T14:09:25.613Z,101958.00
2024-01-28T14:11:53.202Z,101962.00
2024-01-28T14:14:20.821Z,101961.00
2024-01-28T14:16:48.480Z,101959.00
2024-01-28T14:19:16.064Z,101955.00
2024-01-28T14:21:43.673Z,101951.00
2024-01-28T14:24:11.293Z,101958.00
2024-01-28T14:26:39.044Z,101954.00
2024-01-28T14:29:06.633Z,101948.00
2024-01-28T14:31:34.315Z,101945.00
2024-01-28T14:34:02.279Z,101941.00
2024-01-28T14:36:29.784Z,101935.00
2024-01-28T14:38:57.422Z,101946.00
2024-01-28T14:41:25.172Z,101945.00
2024-01-28T14:43:52.932Z,101946.00
2024-01-28T14:46:20.472Z,101948.00
2024-01-28T14:48:48.192Z,101952.00
2024-01-28T14:51:15.829Z,101947.00
2024-01-28T14:53:43.492Z,101948.00
2024-01-28T14:56:11.165Z,101941.00
2024-01-28T14:58:38.781Z,101948.00
2024-01-28T15:01:06.474Z,101944.00
2024-01-28T15:03:34.146Z,101941.00
2024-01-28T15:06:01.875Z,101941.00
2024-01-28T15:08:29.734Z,101938.00
2024-01-28T15:10:57.447Z,101943.00
2024-01-28T15:13:24.988Z,101930.00
2024-01-28T15:15:52.737Z,101932.00
2024-01-28T15:18:20.574Z,101934.00
2024-01-28T15:20:48.205Z,101929.00
2024-01-28T15:23:16.115Z,101928.00
2024-01-28T15:25:43.617Z,101926.00
2024-01-28T15:28:17.866Z,101925.00
2024-01-28T15:30:52.286Z,101916.00
2024-01-28T15:33:20.189Z,101915.00
2024-01-28T15:35:47.779Z,101914.00
2024-01-28T15:38:16.889Z,101912.00
2024-01-28T15:40:44.769Z,101910.00
2024-01-28T15:43:12.404Z,101908.00
2024-01-28T15:45:39.986Z,101923.00
2024-01-28T15:48:10.928Z,101911.00
2024-01-28T15:50:38.766Z,101915.00
2024-01-28T15:53:06.418Z,101914.00
2024-01-28T15:55:34.112Z,101907.00
2024-01-28T15:58:02.535Z,101914.00
2024-01-28T16:00:30.195Z,101907.00
2024-01-28T16:02:57.972Z,101896.00
2024-01-28T16:05:25.717Z,101899.00
2024-01-28T16:07:53.619Z,101907.00
2024-01-28T16:10:21.785Z,101893.00
2024-01-28T16:12:49.471Z,101895.00
2024-01-28T16:15:17.265Z,101900.00
2024-01-28T16:17:45.174Z,101894.00
2024-01-28T16:20:12.823Z,101892.00
2024-01-28T16:22:40.390Z,101892.00
2024-01-28T16:25:08.431Z,101890.00
2024-01-28T16:27:38.845Z,101900.00
2024-01-28T16:30:06.843Z,101891.00
2024-01-28T16:32:34.964Z,101889.00
2024-01-28T16:35:06.894Z,101885.00
2024-01-28T16:37:35.728Z,101888.00
2024-01-28T16:40:03.371Z,101887.00
2024-01-28T16:42:31.315Z,101873.00
2024-01-28T16:44:59.323Z,101894.00
2024-01-28T16:47:26.852Z,101884.00
2024-01-28T16:49:54.706Z,101891.00
2024-01-28T16:52:22.332Z,101873.00
2024-01-28T16:54:50.182Z,101876.00
2024-01-28T16:57:17.873Z,101880.00
2024-01-28T16:59:45.569Z,101872.00
2024-01-28T17:02:13.128Z,101872.00
2024-01-28T17:04:40.679Z,101885.00
2024-01-28T17:07:08.398Z,101862.00
2024-01-28T17:09:36.013Z,101858.00
2024-01-28T17:12:03.563Z,101852.00
2024-01-28T17:14:31.064Z,101852.00
2024-01-28T17:16:58.520Z,101845.00
2024-01-28T17:19:26.036Z,101849.00
2024-01-28T17:21:54.234Z,101841.00
2024-01-28T17:24:23.551Z,101843.00
2024-01-28T17:26:52.253Z,101841.00
2024-01-28T17:29:19.803Z,101852.00
2024-01-28T17:31:47.698Z,101841.00
2024-01-28T17:34:16.174Z,101843.00
2024-01-28T17:36:44.088Z,101835.00
2024-01-28T17:39:12.874Z,101831.00
2024-01-28T17:41:40.937Z,101833.00
2024-01-28T17:44:08.529Z,101831.00
2024-01-28T17:46:36.097Z,101829.00
2024-01-28T17:49:05.302Z,101815.00
2024-01-28T17:51:33.120Z,101823.00
2024-01-28T17:54:02.619Z,101821.00
2024-01-28T17:56:30.369Z,101809.00
2024-01-28T17:58:57.987Z,101813.00
2024-01-28T18:01:25.762Z,101820.00
2024-01-28T18:03:53.527Z,101822.00
2024-01-28T18:06:21.408Z,101822.00
2024-01-28T18:08:48.863Z,101816.00
2024-01-28T18:11:17.244Z,101821.00
2024-01-28T18:13:44.760Z,101811.00
2024-01-28T18:16:15.417Z,101814.00
2024-01-28T18:18:43.486Z,101811.00
2024-01-28T18:21:12.622Z,101812.00
2024-01-28T18:23:41.075Z,101804.00
2024-01-28T18:26:08.834Z,101806.00
2024-01-28T18:28:36.955Z,101807.00
2024-01-28T18:31:05.057Z,101811.00
2024-01-28T18:33:35.785Z,101801.00
2024-01-28T18:36:07.257Z,101795.00
2024-01-28T18:38:34.926Z,101801.00
2024-01-28T18:41:02.934Z,101796.00
2024-01-28T18:43:30.405Z,101800.00
2024-01-28T18:45:58.242Z,101802.00
2024-01-28T18:48:25.920Z,101802.00
2024-01-28T18:50:53.583Z,101805.00
2024-01-28T18:53:21.050Z,101790.00
2024-01-28T18:55:48.540Z,101799.00
2024-01-28T18:58:17.781Z,101794.00
2024-01-28T19:00:47.322Z,101791.00
2024-01-28T19:03:14.960Z,101785.00
2024-01-28T19:05:44.648Z,101790.00
2024-01-28T19:08:12.775Z,101791.00
2024-01-28T19:10:40.528Z,101782.00
2024-01-28T19:13:10.571Z,101776.00
2024-01-28T19:15:38.550Z,101775.00
2024-01-28T19:18:06.348Z,101768.00
2024-01-28T19:20:34.288Z,101773.00
2024-01-28T19:23:03.349Z,101775.00
2024-01-28T19:25:33.219Z,101771.00
2024-01-28T19:28:01.303Z,101757.00
2024-01-28T19:30:29.590Z,101755.00
2024-01-28T19:32:57.315Z,101752.00
2024-01-28T19:35:25.061Z,101747.00
2024-01-28T19:37:52.776Z,101748.00
2024-01-28T19:40:21.241Z,101745.00
2024-01-28T19:42:48.825Z,101742.00
2024-01-28T19:45:16.560Z,101743.00
2024-01-28T19:47:45.055Z,101740.00
2024-01-28T19:50:13.412Z,101746.00
2024-01-28T19:52:41.329Z,101749.00
2024-01-28T19:55:09.250Z,101746.00
2024-01-28T19:57:36.915Z,101734.00
2024-01-28T20:00:04.952Z,101729.00
2024-01-28T20:02:32.551Z,101727.00
2024-01-28T20:05:00.178Z,101733.00
2024-01-28T20:07:27.951Z,101721.00
2024-01-28T20:10:00.885Z,101722.00
2024-01-28T20:12:28.562Z,101724.00
2024-01-28T20:14:56.174Z,101719.00
2024-01-28T20:17:23.658Z,101715.00
2024-01-28T20:19:51.595Z,101720.00
2024-01-28T20:22:19.452Z,101726.00
2024-01-28T20:24:47.009Z,101722.00
2024-01-28T20:27:14.524Z,101722.00
2024-01-28T20:29:41.989Z,101716.00
2024-01-28T20:32:09.567Z,101710.00
2024-01-28T20:34:37.332Z,101711.00
2024-01-28T20:37:05.280Z,101709.00
2024-01-28T20:39:33.045Z,101713.00
2024-01-28T20:42:00.590Z,101710.00
2024-01-28T20:44:28.633Z,101709.00
2024-01-28T20:46:56.413Z,101701.00
2024-01-28T20:49:25.095Z,101704.00
2024-01-28T20:51:52.733Z,101708.00
2024-01-28T20:54:20.397Z,101705.00
2024-01-28T20:56:48.117Z,101702.00
2024-01-28T20:59:15.680Z,101712.00
2024-01-28T21:01:43.301Z,101722.00
2024-01-28T21:04:11.018Z,101715.00
2024-01-28T21:06:39.097Z,101707.00
2024-01-28T21:09:06.726Z,101704.00
2024-01-28T21:11:34.509Z,101710.00
2024-01-28T21:14:05.057Z,101711.00
2024-01-28T21:16:32.501Z,101703.00
2024-01-28T21:19:00.089Z,101708.00
2024-01-28T21:21:27.710Z,101705.00
2024-01-28T21:23:55.318Z,101702.00
2024-01-28T21:26:22.988Z,101706.00
2024-01-28T21:28:50.513Z,101696.00
2024-01-28T21:31:19.079Z,101697.00
2024-01-28T21:33:49.945Z,101695.00
2024-01-28T21:36:17.988Z,101691.00
2024-01-28T21:38:45.678Z,101683.00
2024-01-28T21:41:13.291Z,101682.00
2024-01-28T21:43:40.868Z,101687.00
2024-01-28T21:46:08.460Z,101684.00
2024-01-28T21:48:36.116Z,101682.00
2024-01-28T21:51:03.909Z,101681.00
2024-01-28T21:53:32.037Z,101682.00
2024-01-28T21:56:01.923Z,101682.00
2024-01-28T21:58:29.780Z,101681.00
2024-01-28T22:00:57.930Z,101680.00
2024-01-28T22:03:25.999Z,101684.00
2024-01-28T22:05:54.000Z,101682.00
2024-01-28T22:08:21.763Z,101689.00
2024-01-28T22:10:49.382Z,101688.00
2024-01-28T22:13:16.918Z,101682.00
2024-01-28T22:15:44.734Z,101688.00
2024-01-28T22:18:12.314Z,101687.00
2024-01-28T22:20:40.186Z,101682.00
2024-01-28T22:23:07.675Z,101676.00
2024-01-28T22:25:35.176Z,101679.00
2024-01-28T22:28:02.766Z,101668.00
2024-01-28T22:30:31.193Z,101670.00
2024-01-28T22:32:58.824Z,101663.00
2024-01-28T22:35:28.363Z,101657.00
2024-01-28T22:37:56.156Z,101667.00
2024-01-28T22:40:25.155Z,101665.00
2024-01-28T22:42:52.953Z,101674.00
2024-01-28T22:45:20.783Z,101675.00
2024-01-28T22:47:51.598Z,101677.00
2024-01-28T22:50:20.277Z,101681.00
2024-01-28T22:52:47.813Z,101674.00
2024-01-28T22:55:15.931Z,101672.00
2024-01-28T22:57:43.565Z,101672.00
2024-01-28T23:00:18.701Z,101667.00
2024-01-28T23:02:46.593Z,101657.00
2024-01-28T23:05:15.747Z,101645.00
2024-01-28T23:07:46.510Z,101654.00
2024-01-28T23:10:14.034Z,101644.00
2024-01-28T23:12:41.694Z,101649.00
2024-01-28T23:15:15.228Z,101635.00
2024-01-28T23:17:50.887Z,101640.00
2024-01-28T23:20:18.606Z,101631.00
2024-01-28T23:22:46.169Z,101626.00
2024-01-28T23:25:13.707Z,101621.00
2024-01-28T23:27:41.726Z,101623.00
2024-01-28T23:30:10.141Z,101627.00
2024-01-28T23:32:37.861Z,101627.00
2024-01-28T23:35:05.879Z,101625.00
2024-01-28T23:37:33.712Z,101622.00
2024-01-28T23:40:01.702Z,101622.00
2024-01-28T23:42:29.710Z,101619.00
2024-01-28T23:44:57.650Z,101619.00
2024-01-28T23:47:25.219Z,101629.00
2024-01-28T23:49:55.002Z,101607.00
2024-01-28T23:52:22.807Z,101609.00
2024-01-28T23:54:50.439Z,101618.00
2024-01-28T23:57:18.144Z,101612.00
2024-01-28T23:59:45.737Z,101619.00
